메인 페이지
METAR-TAF:

METAR-TAF

공항 :

홍콩 국제공항

홍콩, 중국

위도: 22-19N, 경도: 113-55E, 고도: 9m

현재 날씨관측

예보는 34분 전, 10:00시(UTC)에 발표되었습니다.
10kt
온도 25°C
습도 79%
기압 1014 hPa
시정 10km 이상
고도 2300ft 상공 구름 보통

METAR: VHHH 161000Z 10010KT 9999 SCT023 25/21 Q1014 NOSIG

시각: 18:34 (10:34 UTC)

예보

예보는 5 시간 34분 전, 05:00시(UTC)에 발표되었습니다.
예보 대상 시간: 16일 06시부터 17일 12시까지 (UTC)
10kt
시정: 8000m
고도 1500ft 상공 구름 조금
고도 2500ft 상공 구름 보통
일시적
16일 20시부터 17일 02시까지 (UTC)
북북동10kt
시정: 4000m
박무, 약한비

TAF: VHHH 160500Z 1606/1712 08010KT 8000 FEW015 SCT025 TX27/1606Z TX26/1706Z TN23/1622Z TEMPO 1620/1702 02010KT 4000 BR -RA

4,000개 이상의 공항 관측 자료 및 예보 (METAR 및 TAF 보고).

지도상에서 검색 가능한 기상관측소가 노란 점과 빨간 점으로 표시되어 있습니다.

기상관측소 명을 보려면 표시 위로 마우스를 이동하세요.

날씨 관측과 예보를 보려면 클릭하세요.

지도 변경 : 확대하려면 엑스 표시가 있는 녹색 버튼, 축소하려면 빼기 표시가 있는 녹색 버튼, 다음 페이지의 지도를 보려면 녹색 화살표를 클릭하세요.


METAR-TAF: